KEKO/EKO METAR and TAF weather

Enter ICAO airport designator
Station Type Date Time Source
KEKO METAR 2020/03/31 20:56 UTC NOAA

KEKO 312056Z AUTO 23016G33KT 10SM BKN080 15/M03 A2992 RMK AO2 PK WND 24034/2026 SLP105 T01501028 58029


Station Type Date Time Source
KEKO Decoded METAR 2020/03/31 20:56 UTC NOAA

ELKO REGIONAL AIRPORT, NV, United States (KEKO) 40-50N 115-47W 1547M
Mar 31, 2020 - 04:56 PM EDT / 2020.03.31 2056 UTC
Wind: from the SW (230 degrees) at 18 MPH (16 KT) gusting to 38 MPH (33 KT):0
Visibility: 10 mile(s):0
Sky conditions: mostly cloudy
Temperature: 59.0 F (15.0 C)
Dew Point: 27.0 F (-2.8 C)
Relative Humidity: 29%
Pressure (altimeter): 29.92 in. Hg (1013 hPa)
Pressure tendency: 0.09 inches (2.9 hPa) lower than three hours ago
ob: KEKO 312056Z AUTO 23016G33KT 10SM BKN080 15/M03 A2992 RMK AO2 PK WND 24034/2026 SLP105 T01501028 58029
cycle: 21

Station Type Date Time Source
KEKO TAF 2020/03/31 18:40 UTC NOAA

TAF KEKO 311738Z 3118/0118 25025G35KT P6SM OVC060
FM010300 24012G22KT P6SM SCT060 BKN100 BKN200
FM011400 VRB04KT P6SM -SHSN BKN015 OVC025
FM011500 VRB04KT 5SM -SN OVC009
FM011600 25005KT P6SM -SHSN SCT009 OVC025

Example: see airport list